sensor_id;sensor_type;location;lat;lon;timestamp;temperature;humidity
33837;DHT22;20140;49.356;8.812;2024-02-15T00:01:51;9.70;99.90
33837;DHT22;20140;49.356;8.812;2024-02-15T00:04:17;9.60;99.90
33837;DHT22;20140;49.356;8.812;2024-02-15T00:06:43;9.50;99.90
33837;DHT22;20140;49.356;8.812;2024-02-15T00:09:09;9.50;99.90
33837;DHT22;20140;49.356;8.812;2024-02-15T00:11:34;9.60;99.90
33837;DHT22;20140;49.356;8.812;2024-02-15T00:14:00;9.70;99.90
33837;DHT22;20140;49.356;8.812;2024-02-15T00:16:25;9.70;99.90
33837;DHT22;20140;49.356;8.812;2024-02-15T00:18:53;9.50;99.90
33837;DHT22;20140;49.356;8.812;2024-02-15T00:21:20;9.50;99.90
33837;DHT22;20140;49.356;8.812;2024-02-15T00:23:47;9.60;99.90
33837;DHT22;20140;49.356;8.812;2024-02-15T00:26:12;9.50;99.90
33837;DHT22;20140;49.356;8.812;2024-02-15T00:28:38;9.30;99.90
33837;DHT22;20140;49.356;8.812;2024-02-15T00:31:03;9.30;99.90
33837;DHT22;20140;49.356;8.812;2024-02-15T00:33:29;9.30;99.90
33837;DHT22;20140;49.356;8.812;2024-02-15T00:35:54;9.20;99.90
33837;DHT22;20140;49.356;8.812;2024-02-15T00:38:20;9.30;99.90
33837;DHT22;20140;49.356;8.812;2024-02-15T00:40:45;9.30;99.90
33837;DHT22;20140;49.356;8.812;2024-02-15T00:43:11;9.30;99.90
33837;DHT22;20140;49.356;8.812;2024-02-15T00:45:36;9.30;99.90
33837;DHT22;20140;49.356;8.812;2024-02-15T00:48:02;9.40;99.90
33837;DHT22;20140;49.356;8.812;2024-02-15T00:50:27;9.20;99.90
33837;DHT22;20140;49.356;8.812;2024-02-15T00:52:53;9.10;99.90
33837;DHT22;20140;49.356;8.812;2024-02-15T00:55:18;9.00;99.90
33837;DHT22;20140;49.356;8.812;2024-02-15T00:57:45;8.90;99.90
33837;DHT22;20140;49.356;8.812;2024-02-15T01:00:11;8.90;99.90
33837;DHT22;20140;49.356;8.812;2024-02-15T01:02:38;9.10;99.90
33837;DHT22;20140;49.356;8.812;2024-02-15T01:05:04;9.00;99.90
33837;DHT22;20140;49.356;8.812;2024-02-15T01:07:29;8.80;99.90
33837;DHT22;20140;49.356;8.812;2024-02-15T01:09:55;8.80;99.90
33837;DHT22;20140;49.356;8.812;2024-02-15T01:12:20;8.70;99.90
33837;DHT22;20140;49.356;8.812;2024-02-15T01:14:46;8.70;99.90
33837;DHT22;20140;49.356;8.812;2024-02-15T01:17:13;8.70;99.90
33837;DHT22;20140;49.356;8.812;2024-02-15T01:19:38;8.70;99.90
33837;DHT22;20140;49.356;8.812;2024-02-15T01:22:04;8.80;99.90
33837;DHT22;20140;49.356;8.812;2024-02-15T01:24:31;8.80;99.90
33837;DHT22;20140;49.356;8.812;2024-02-15T01:26:57;8.70;99.90
33837;DHT22;20140;49.356;8.812;2024-02-15T01:29:23;8.70;99.90
33837;DHT22;20140;49.356;8.812;2024-02-15T01:31:49;8.80;99.90
33837;DHT22;20140;49.356;8.812;2024-02-15T01:34:15;8.70;99.90
33837;DHT22;20140;49.356;8.812;2024-02-15T01:36:40;8.50;99.90
33837;DHT22;20140;49.356;8.812;2024-02-15T01:39:06;8.40;99.90
33837;DHT22;20140;49.356;8.812;2024-02-15T01:41:31;8.50;99.90
33837;DHT22;20140;49.356;8.812;2024-02-15T01:43:57;8.60;99.90
33837;DHT22;20140;49.356;8.812;2024-02-15T01:46:23;8.60;99.90
33837;DHT22;20140;49.356;8.812;2024-02-15T01:48:51;8.30;99.90
33837;DHT22;20140;49.356;8.812;2024-02-15T01:51:17;8.50;99.90
33837;DHT22;20140;49.356;8.812;2024-02-15T01:53:43;8.40;99.90
33837;DHT22;20140;49.356;8.812;2024-02-15T01:56:12;8.40;99.90
33837;DHT22;20140;49.356;8.812;2024-02-15T01:58:41;8.50;99.90
33837;DHT22;20140;49.356;8.812;2024-02-15T02:01:11;8.40;99.90
33837;DHT22;20140;49.356;8.812;2024-02-15T02:03:36;8.40;99.90
33837;DHT22;20140;49.356;8.812;2024-02-15T02:06:02;8.40;99.90
33837;DHT22;20140;49.356;8.812;2024-02-15T02:08:28;8.40;99.90
33837;DHT22;20140;49.356;8.812;2024-02-15T02:10:54;8.50;99.90
33837;DHT22;20140;49.356;8.812;2024-02-15T02:13:19;8.60;99.90
33837;DHT22;20140;49.356;8.812;2024-02-15T02:15:45;8.70;99.90
33837;DHT22;20140;49.356;8.812;2024-02-15T02:18:10;8.80;99.90
33837;DHT22;20140;49.356;8.812;2024-02-15T02:20:36;8.60;99.90
33837;DHT22;20140;49.356;8.812;2024-02-15T02:23:13;8.40;99.90
33837;DHT22;20140;49.356;8.812;2024-02-15T02:25:38;8.40;99.90
33837;DHT22;20140;49.356;8.812;2024-02-15T02:28:06;8.40;99.90
33837;DHT22;20140;49.356;8.812;2024-02-15T02:30:32;8.50;99.90
33837;DHT22;20140;49.356;8.812;2024-02-15T02:32:58;8.60;99.90
33837;DHT22;20140;49.356;8.812;2024-02-15T02:35:24;8.50;99.90
33837;DHT22;20140;49.356;8.812;2024-02-15T02:37:51;8.40;99.90
33837;DHT22;20140;49.356;8.812;2024-02-15T02:40:18;8.40;99.90
33837;DHT22;20140;49.356;8.812;2024-02-15T02:42:54;8.30;99.90
33837;DHT22;20140;49.356;8.812;2024-02-15T02:45:26;8.20;99.90
33837;DHT22;20140;49.356;8.812;2024-02-15T02:47:52;8.30;99.90
33837;DHT22;20140;49.356;8.812;2024-02-15T02:50:18;8.30;99.90
33837;DHT22;20140;49.356;8.812;2024-02-15T02:52:44;8.30;99.90
33837;DHT22;20140;49.356;8.812;2024-02-15T02:55:10;8.50;99.90
33837;DHT22;20140;49.356;8.812;2024-02-15T02:57:37;8.20;99.90
33837;DHT22;20140;49.356;8.812;2024-02-15T03:00:07;8.30;99.90
33837;DHT22;20140;49.356;8.812;2024-02-15T03:02:34;8.30;99.90
33837;DHT22;20140;49.356;8.812;2024-02-15T03:05:05;8.50;99.90
33837;DHT22;20140;49.356;8.812;2024-02-15T03:07:35;8.50;99.90
33837;DHT22;20140;49.356;8.812;2024-02-15T03:10:01;8.60;99.90
33837;DHT22;20140;49.356;8.812;2024-02-15T03:12:30;8.60;99.90
33837;DHT22;20140;49.356;8.812;2024-02-15T03:14:56;8.60;99.90
33837;DHT22;20140;49.356;8.812;2024-02-15T03:17:23;8.60;99.90
33837;DHT22;20140;49.356;8.812;2024-02-15T03:19:49;8.70;99.90
33837;DHT22;20140;49.356;8.812;2024-02-15T03:22:14;8.80;99.90
33837;DHT22;20140;49.356;8.812;2024-02-15T03:24:40;8.70;99.90
33837;DHT22;20140;49.356;8.812;2024-02-15T03:27:06;8.70;99.90
33837;DHT22;20140;49.356;8.812;2024-02-15T03:29:31;8.80;99.90
33837;DHT22;20140;49.356;8.812;2024-02-15T03:31:59;8.80;99.90
33837;DHT22;20140;49.356;8.812;2024-02-15T03:34:25;8.50;99.90
33837;DHT22;20140;49.356;8.812;2024-02-15T03:36:51;8.50;99.90
33837;DHT22;20140;49.356;8.812;2024-02-15T03:39:19;8.50;99.90
33837;DHT22;20140;49.356;8.812;2024-02-15T03:41:45;8.50;99.90
33837;DHT22;20140;49.356;8.812;2024-02-15T03:44:13;8.50;99.90
33837;DHT22;20140;49.356;8.812;2024-02-15T03:46:40;8.40;99.90
33837;DHT22;20140;49.356;8.812;2024-02-15T03:49:05;8.60;99.90
33837;DHT22;20140;49.356;8.812;2024-02-15T03:51:34;8.60;99.90
33837;DHT22;20140;49.356;8.812;2024-02-15T03:53:59;8.60;99.90
33837;DHT22;20140;49.356;8.812;2024-02-15T03:56:25;8.60;99.90
33837;DHT22;20140;49.356;8.812;2024-02-15T03:58:50;8.60;99.90
33837;DHT22;20140;49.356;8.812;2024-02-15T04:01:16;8.50;99.90
33837;DHT22;20140;49.356;8.812;2024-02-15T04:03:42;8.70;99.90
33837;DHT22;20140;49.356;8.812;2024-02-15T04:06:07;8.60;99.90
33837;DHT22;20140;49.356;8.812;2024-02-15T04:08:35;8.60;99.90
33837;DHT22;20140;49.356;8.812;2024-02-15T04:11:04;8.80;99.90
33837;DHT22;20140;49.356;8.812;2024-02-15T04:13:31;8.80;99.90
33837;DHT22;20140;49.356;8.812;2024-02-15T04:15:57;8.80;99.90
33837;DHT22;20140;49.356;8.812;2024-02-15T04:18:23;8.70;99.90
33837;DHT22;20140;49.356;8.812;2024-02-15T04:20:48;8.70;99.90
33837;DHT22;20140;49.356;8.812;2024-02-15T04:23:14;8.70;99.90
33837;DHT22;20140;49.356;8.812;2024-02-15T04:25:40;8.70;99.90
33837;DHT22;20140;49.356;8.812;2024-02-15T04:28:06;8.70;99.90
33837;DHT22;20140;49.356;8.812;2024-02-15T04:30:34;8.80;99.90
33837;DHT22;20140;49.356;8.812;2024-02-15T04:33:04;8.70;99.90
33837;DHT22;20140;49.356;8.812;2024-02-15T04:35:30;8.70;99.90
33837;DHT22;20140;49.356;8.812;2024-02-15T04:37:56;8.80;99.90
33837;DHT22;20140;49.356;8.812;2024-02-15T04:40:21;8.70;99.90
33837;DHT22;20140;49.356;8.812;2024-02-15T04:42:47;8.70;99.90
33837;DHT22;20140;49.356;8.812;2024-02-15T04:45:12;8.70;99.90
33837;DHT22;20140;49.356;8.812;2024-02-15T04:47:43;8.60;99.90
33837;DHT22;20140;49.356;8.812;2024-02-15T04:50:11;8.60;99.90
33837;DHT22;20140;49.356;8.812;2024-02-15T04:52:36;8.80;99.90
33837;DHT22;20140;49.356;8.812;2024-02-15T04:55:02;8.70;99.90
33837;DHT22;20140;49.356;8.812;2024-02-15T04:57:30;8.50;99.90
33837;DHT22;20140;49.356;8.812;2024-02-15T04:59:58;8.50;99.90
33837;DHT22;20140;49.356;8.812;2024-02-15T05:02:25;8.50;99.90
33837;DHT22;20140;49.356;8.812;2024-02-15T05:04:51;8.50;99.90
33837;DHT22;20140;49.356;8.812;2024-02-15T05:07:21;8.50;99.90
33837;DHT22;20140;49.356;8.812;2024-02-15T05:09:48;8.50;99.90
33837;DHT22;20140;49.356;8.812;2024-02-15T05:12:22;8.60;99.90
33837;DHT22;20140;49.356;8.812;2024-02-15T05:14:49;8.60;99.90
33837;DHT22;20140;49.356;8.812;2024-02-15T05:17:16;8.50;99.90
33837;DHT22;20140;49.356;8.812;2024-02-15T05:19:41;8.50;99.90
33837;DHT22;20140;49.356;8.812;2024-02-15T05:22:07;8.60;99.90
33837;DHT22;20140;49.356;8.812;2024-02-15T05:24:33;8.70;99.90
33837;DHT22;20140;49.356;8.812;2024-02-15T05:26:59;8.70;99.90
33837;DHT22;20140;49.356;8.812;2024-02-15T05:29:25;8.80;99.90
33837;DHT22;20140;49.356;8.812;2024-02-15T05:31:50;8.80;99.90
33837;DHT22;20140;49.356;8.812;2024-02-15T05:34:17;8.70;99.90
33837;DHT22;20140;49.356;8.812;2024-02-15T05:36:42;8.80;99.90
33837;DHT22;20140;49.356;8.812;2024-02-15T05:39:08;8.80;99.90
33837;DHT22;20140;49.356;8.812;2024-02-15T05:41:36;8.70;99.90
33837;DHT22;20140;49.356;8.812;2024-02-15T05:44:02;8.60;99.90
33837;DHT22;20140;49.356;8.812;2024-02-15T05:46:33;8.80;99.90
33837;DHT22;20140;49.356;8.812;2024-02-15T05:49:02;8.80;99.90
33837;DHT22;20140;49.356;8.812;2024-02-15T05:51:30;8.70;99.90
33837;DHT22;20140;49.356;8.812;2024-02-15T05:53:56;8.60;99.90
33837;DHT22;20140;49.356;8.812;2024-02-15T05:56:24;8.60;99.90
33837;DHT22;20140;49.356;8.812;2024-02-15T05:58:51;8.70;99.90
33837;DHT22;20140;49.356;8.812;2024-02-15T06:01:19;8.70;99.90
33837;DHT22;20140;49.356;8.812;2024-02-15T06:03:45;8.60;99.90
33837;DHT22;20140;49.356;8.812;2024-02-15T06:06:11;8.60;99.90
33837;DHT22;20140;49.356;8.812;2024-02-15T06:08:38;8.70;99.90
33837;DHT22;20140;49.356;8.812;2024-02-15T06:11:04;8.80;99.90
33837;DHT22;20140;49.356;8.812;2024-02-15T06:13:31;8.80;99.90
33837;DHT22;20140;49.356;8.812;2024-02-15T06:15:56;8.60;99.90
33837;DHT22;20140;49.356;8.812;2024-02-15T06:18:27;8.60;99.90
33837;DHT22;20140;49.356;8.812;2024-02-15T06:20:55;8.60;99.90
33837;DHT22;20140;49.356;8.812;2024-02-15T06:23:22;8.60;99.90
33837;DHT22;20140;49.356;8.812;2024-02-15T06:25:51;8.80;99.90
33837;DHT22;20140;49.356;8.812;2024-02-15T06:28:18;8.80;99.90
33837;DHT22;20140;49.356;8.812;2024-02-15T06:31:02;8.80;99.90
33837;DHT22;20140;49.356;8.812;2024-02-15T06:33:46;8.70;99.90
33837;DHT22;20140;49.356;8.812;2024-02-15T06:36:30;8.70;99.90
33837;DHT22;20140;49.356;8.812;2024-02-15T06:39:15;8.70;99.90
33837;DHT22;20140;49.356;8.812;2024-02-15T06:41:59;8.70;99.90
33837;DHT22;20140;49.356;8.812;2024-02-15T06:44:26;8.70;99.90
33837;DHT22;20140;49.356;8.812;2024-02-15T06:46:52;8.70;99.90
33837;DHT22;20140;49.356;8.812;2024-02-15T06:49:17;8.70;99.90
33837;DHT22;20140;49.356;8.812;2024-02-15T06:51:43;8.80;99.90
33837;DHT22;20140;49.356;8.812;2024-02-15T06:54:09;8.80;99.90
33837;DHT22;20140;49.356;8.812;2024-02-15T06:56:38;8.80;99.90
33837;DHT22;20140;49.356;8.812;2024-02-15T06:59:05;8.80;99.90
33837;DHT22;20140;49.356;8.812;2024-02-15T07:01:30;8.80;99.90
33837;DHT22;20140;49.356;8.812;2024-02-15T07:03:57;9.00;99.90
33837;DHT22;20140;49.356;8.812;2024-02-15T07:06:23;9.00;99.90
33837;DHT22;20140;49.356;8.812;2024-02-15T07:08:48;9.00;99.90
33837;DHT22;20140;49.356;8.812;2024-02-15T07:11:16;8.90;99.90
33837;DHT22;20140;49.356;8.812;2024-02-15T07:13:41;8.90;99.90
33837;DHT22;20140;49.356;8.812;2024-02-15T07:16:08;8.90;99.90
33837;DHT22;20140;49.356;8.812;2024-02-15T07:18:33;8.80;99.90
33837;DHT22;20140;49.356;8.812;2024-02-15T07:20:59;8.90;99.90
33837;DHT22;20140;49.356;8.812;2024-02-15T07:23:26;9.00;99.90
33837;DHT22;20140;49.356;8.812;2024-02-15T07:25:52;9.00;99.90
33837;DHT22;20140;49.356;8.812;2024-02-15T07:28:19;9.00;99.90
33837;DHT22;20140;49.356;8.812;2024-02-15T07:30:46;8.90;99.90
33837;DHT22;20140;49.356;8.812;2024-02-15T07:33:14;8.90;99.90
33837;DHT22;20140;49.356;8.812;2024-02-15T07:35:43;9.00;99.90
33837;DHT22;20140;49.356;8.812;2024-02-15T07:38:09;9.00;99.90
33837;DHT22;20140;49.356;8.812;2024-02-15T07:40:36;9.10;99.90
33837;DHT22;20140;49.356;8.812;2024-02-15T07:43:05;9.10;99.90
33837;DHT22;20140;49.356;8.812;2024-02-15T07:45:31;9.20;99.90
33837;DHT22;20140;49.356;8.812;2024-02-15T07:48:03;9.20;99.90
33837;DHT22;20140;49.356;8.812;2024-02-15T07:50:32;9.20;99.90
33837;DHT22;20140;49.356;8.812;2024-02-15T07:52:58;9.20;99.90
33837;DHT22;20140;49.356;8.812;2024-02-15T07:55:24;9.20;99.90
33837;DHT22;20140;49.356;8.812;2024-02-15T07:57:53;9.30;99.90
33837;DHT22;20140;49.356;8.812;2024-02-15T08:00:19;9.30;99.90
33837;DHT22;20140;49.356;8.812;2024-02-15T08:02:45;9.30;99.90
33837;DHT22;20140;49.356;8.812;2024-02-15T08:05:12;9.30;99.90
33837;DHT22;20140;49.356;8.812;2024-02-15T08:07:41;9.40;99.90
33837;DHT22;20140;49.356;8.812;2024-02-15T08:10:08;9.40;99.90
33837;DHT22;20140;49.356;8.812;2024-02-15T08:12:48;9.40;99.90
33837;DHT22;20140;49.356;8.812;2024-02-15T08:15:17;9.50;99.90
33837;DHT22;20140;49.356;8.812;2024-02-15T08:17:44;9.50;99.90
33837;DHT22;20140;49.356;8.812;2024-02-15T08:20:14;9.50;99.90
33837;DHT22;20140;49.356;8.812;2024-02-15T08:22:40;9.50;99.90
33837;DHT22;20140;49.356;8.812;2024-02-15T08:25:08;9.50;99.90
33837;DHT22;20140;49.356;8.812;2024-02-15T08:27:36;9.60;99.90
33837;DHT22;20140;49.356;8.812;2024-02-15T08:30:07;9.60;99.90
33837;DHT22;20140;49.356;8.812;2024-02-15T08:32:34;9.60;99.90
33837;DHT22;20140;49.356;8.812;2024-02-15T08:35:00;9.70;99.90
33837;DHT22;20140;49.356;8.812;2024-02-15T08:37:25;9.80;99.90
33837;DHT22;20140;49.356;8.812;2024-02-15T08:39:51;9.90;99.90
33837;DHT22;20140;49.356;8.812;2024-02-15T08:42:18;9.90;99.90
33837;DHT22;20140;49.356;8.812;2024-02-15T08:44:47;10.00;99.90
33837;DHT22;20140;49.356;8.812;2024-02-15T08:47:13;10.10;99.90
33837;DHT22;20140;49.356;8.812;2024-02-15T08:49:39;10.20;99.90
33837;DHT22;20140;49.356;8.812;2024-02-15T08:52:06;10.10;99.90
33837;DHT22;20140;49.356;8.812;2024-02-15T08:54:33;10.20;99.90
33837;DHT22;20140;49.356;8.812;2024-02-15T08:56:59;10.10;99.90
33837;DHT22;20140;49.356;8.812;2024-02-15T08:59:24;10.10;99.90
33837;DHT22;20140;49.356;8.812;2024-02-15T09:01:53;10.10;99.90
33837;DHT22;20140;49.356;8.812;2024-02-15T09:04:20;10.20;99.90
33837;DHT22;20140;49.356;8.812;2024-02-15T09:06:46;10.30;99.90
33837;DHT22;20140;49.356;8.812;2024-02-15T09:09:11;10.40;99.90
33837;DHT22;20140;49.356;8.812;2024-02-15T09:11:39;10.50;99.90
33837;DHT22;20140;49.356;8.812;2024-02-15T09:14:05;10.50;99.90
33837;DHT22;20140;49.356;8.812;2024-02-15T09:16:30;10.60;99.90
33837;DHT22;20140;49.356;8.812;2024-02-15T09:18:56;10.70;99.90
33837;DHT22;20140;49.356;8.812;2024-02-15T09:21:26;10.80;99.90
33837;DHT22;20140;49.356;8.812;2024-02-15T09:23:53;10.90;99.90
33837;DHT22;20140;49.356;8.812;2024-02-15T09:26:19;10.90;99.90
33837;DHT22;20140;49.356;8.812;2024-02-15T09:28:45;11.00;99.90
33837;DHT22;20140;49.356;8.812;2024-02-15T09:31:12;11.10;99.90
33837;DHT22;20140;49.356;8.812;2024-02-15T09:33:39;11.20;99.90
33837;DHT22;20140;49.356;8.812;2024-02-15T09:36:05;11.40;99.90
33837;DHT22;20140;49.356;8.812;2024-02-15T09:38:30;11.50;99.90
33837;DHT22;20140;49.356;8.812;2024-02-15T09:40:56;11.60;99.90
33837;DHT22;20140;49.356;8.812;2024-02-15T09:43:22;11.80;99.90
33837;DHT22;20140;49.356;8.812;2024-02-15T09:45:51;12.00;99.90
33837;DHT22;20140;49.356;8.812;2024-02-15T09:48:18;12.00;99.90
33837;DHT22;20140;49.356;8.812;2024-02-15T09:50:45;12.10;99.90
33837;DHT22;20140;49.356;8.812;2024-02-15T09:53:14;12.20;99.90
33837;DHT22;20140;49.356;8.812;2024-02-15T09:55:40;12.20;99.90
33837;DHT22;20140;49.356;8.812;2024-02-15T09:58:07;12.30;99.90
33837;DHT22;20140;49.356;8.812;2024-02-15T10:00:34;12.40;99.90
33837;DHT22;20140;49.356;8.812;2024-02-15T10:03:00;12.50;99.90
33837;DHT22;20140;49.356;8.812;2024-02-15T10:05:27;12.70;99.90
33837;DHT22;20140;49.356;8.812;2024-02-15T10:07:53;12.90;99.90
33837;DHT22;20140;49.356;8.812;2024-02-15T10:10:20;13.00;99.90
33837;DHT22;20140;49.356;8.812;2024-02-15T10:12:50;13.00;99.90
33837;DHT22;20140;49.356;8.812;2024-02-15T10:15:28;13.30;99.90
33837;DHT22;20140;49.356;8.812;2024-02-15T10:17:56;13.20;99.90
33837;DHT22;20140;49.356;8.812;2024-02-15T10:20:24;13.20;99.90
33837;DHT22;20140;49.356;8.812;2024-02-15T10:25:34;13.20;99.90
33837;DHT22;20140;49.356;8.812;2024-02-15T10:30:35;13.50;99.90
33837;DHT22;20140;49.356;8.812;2024-02-15T10:33:02;13.50;99.90
33837;DHT22;20140;49.356;8.812;2024-02-15T10:35:28;13.30;99.90
33837;DHT22;20140;49.356;8.812;2024-02-15T10:38:11;13.40;99.90
33837;DHT22;20140;49.356;8.812;2024-02-15T10:40:37;13.60;99.90
33837;DHT22;20140;49.356;8.812;2024-02-15T10:43:04;13.80;99.90
33837;DHT22;20140;49.356;8.812;2024-02-15T10:45:31;14.00;99.90
33837;DHT22;20140;49.356;8.812;2024-02-15T10:47:57;14.20;99.90
33837;DHT22;20140;49.356;8.812;2024-02-15T10:50:23;14.50;99.90
33837;DHT22;20140;49.356;8.812;2024-02-15T10:52:56;14.50;99.90
33837;DHT22;20140;49.356;8.812;2024-02-15T10:55:40;14.50;99.90
33837;DHT22;20140;49.356;8.812;2024-02-15T10:58:07;15.00;99.90
33837;DHT22;20140;49.356;8.812;2024-02-15T11:00:33;14.70;99.90
33837;DHT22;20140;49.356;8.812;2024-02-15T11:03:03;14.60;99.90
33837;DHT22;20140;49.356;8.812;2024-02-15T11:05:34;14.60;99.90
33837;DHT22;20140;49.356;8.812;2024-02-15T11:08:04;14.90;99.90
33837;DHT22;20140;49.356;8.812;2024-02-15T11:10:30;14.70;99.90
33837;DHT22;20140;49.356;8.812;2024-02-15T11:12:57;14.50;99.90
33837;DHT22;20140;49.356;8.812;2024-02-15T11:18:02;14.30;99.90
33837;DHT22;20140;49.356;8.812;2024-02-15T11:23:00;14.50;99.90
33837;DHT22;20140;49.356;8.812;2024-02-15T11:25:37;14.50;99.90
33837;DHT22;20140;49.356;8.812;2024-02-15T11:30:51;15.10;99.90
33837;DHT22;20140;49.356;8.812;2024-02-15T11:33:29;15.50;99.90
33837;DHT22;20140;49.356;8.812;2024-02-15T11:36:30;15.40;99.90
33837;DHT22;20140;49.356;8.812;2024-02-15T11:38:58;15.70;99.90
33837;DHT22;20140;49.356;8.812;2024-02-15T11:41:23;15.60;99.90
33837;DHT22;20140;49.356;8.812;2024-02-15T11:43:50;15.70;99.90
33837;DHT22;20140;49.356;8.812;2024-02-15T11:46:23;15.60;99.90
33837;DHT22;20140;49.356;8.812;2024-02-15T11:48:56;15.90;99.90
33837;DHT22;20140;49.356;8.812;2024-02-15T11:54:11;15.80;99.90
33837;DHT22;20140;49.356;8.812;2024-02-15T11:59:08;15.90;99.90
33837;DHT22;20140;49.356;8.812;2024-02-15T12:01:38;15.80;99.90
33837;DHT22;20140;49.356;8.812;2024-02-15T12:04:22;15.70;99.90
33837;DHT22;20140;49.356;8.812;2024-02-15T12:07:06;16.00;99.90
33837;DHT22;20140;49.356;8.812;2024-02-15T12:09:58;15.90;99.90
33837;DHT22;20140;49.356;8.812;2024-02-15T12:12:51;16.30;99.90
33837;DHT22;20140;49.356;8.812;2024-02-15T12:15:35;16.50;99.90
33837;DHT22;20140;49.356;8.812;2024-02-15T12:18:19;16.50;99.90
33837;DHT22;20140;49.356;8.812;2024-02-15T12:21:04;16.80;99.90
33837;DHT22;20140;49.356;8.812;2024-02-15T12:23:33;16.70;99.90
33837;DHT22;20140;49.356;8.812;2024-02-15T12:26:01;16.60;99.90
33837;DHT22;20140;49.356;8.812;2024-02-15T12:28:29;16.80;99.90
33837;DHT22;20140;49.356;8.812;2024-02-15T12:30:55;16.90;99.90
33837;DHT22;20140;49.356;8.812;2024-02-15T12:33:24;17.10;99.90
33837;DHT22;20140;49.356;8.812;2024-02-15T12:35:50;17.20;99.90
33837;DHT22;20140;49.356;8.812;2024-02-15T12:38:16;17.30;99.90
33837;DHT22;20140;49.356;8.812;2024-02-15T12:40:42;17.30;99.90
33837;DHT22;20140;49.356;8.812;2024-02-15T12:43:08;17.00;99.90
33837;DHT22;20140;49.356;8.812;2024-02-15T12:45:39;17.10;99.90
33837;DHT22;20140;49.356;8.812;2024-02-15T12:48:07;17.00;99.90
33837;DHT22;20140;49.356;8.812;2024-02-15T12:50:33;17.00;99.90
33837;DHT22;20140;49.356;8.812;2024-02-15T12:53:02;17.10;99.90
33837;DHT22;20140;49.356;8.812;2024-02-15T12:55:35;17.10;99.90
33837;DHT22;20140;49.356;8.812;2024-02-15T12:58:02;17.20;99.90
33837;DHT22;20140;49.356;8.812;2024-02-15T13:00:30;17.50;99.90
33837;DHT22;20140;49.356;8.812;2024-02-15T13:03:03;17.60;99.90
33837;DHT22;20140;49.356;8.812;2024-02-15T13:05:29;17.90;99.90
33837;DHT22;20140;49.356;8.812;2024-02-15T13:07:56;17.90;99.90
33837;DHT22;20140;49.356;8.812;2024-02-15T13:10:28;17.90;99.90
33837;DHT22;20140;49.356;8.812;2024-02-15T13:12:57;17.70;99.90
33837;DHT22;20140;49.356;8.812;2024-02-15T13:15:24;17.50;99.90
33837;DHT22;20140;49.356;8.812;2024-02-15T13:17:53;17.40;99.90
33837;DHT22;20140;49.356;8.812;2024-02-15T13:20:24;17.40;99.90
33837;DHT22;20140;49.356;8.812;2024-02-15T13:23:08;17.10;99.90
33837;DHT22;20140;49.356;8.812;2024-02-15T13:25:38;17.50;99.90
33837;DHT22;20140;49.356;8.812;2024-02-15T13:28:05;17.40;99.90
33837;DHT22;20140;49.356;8.812;2024-02-15T13:30:31;17.60;99.90
33837;DHT22;20140;49.356;8.812;2024-02-15T13:32:57;17.60;99.90
33837;DHT22;20140;49.356;8.812;2024-02-15T13:35:23;17.60;99.90
33837;DHT22;20140;49.356;8.812;2024-02-15T13:37:55;17.90;99.90
33837;DHT22;20140;49.356;8.812;2024-02-15T13:40:27;17.90;99.90
33837;DHT22;20140;49.356;8.812;2024-02-15T13:42:57;17.60;99.90
33837;DHT22;20140;49.356;8.812;2024-02-15T13:45:28;17.30;99.90
33837;DHT22;20140;49.356;8.812;2024-02-15T13:48:03;17.00;99.90
33837;DHT22;20140;49.356;8.812;2024-02-15T13:50:30;17.20;99.90
33837;DHT22;20140;49.356;8.812;2024-02-15T13:52:56;17.30;99.90
33837;DHT22;20140;49.356;8.812;2024-02-15T13:55:23;17.20;99.90
33837;DHT22;20140;49.356;8.812;2024-02-15T13:57:51;17.20;99.90
33837;DHT22;20140;49.356;8.812;2024-02-15T14:00:18;17.10;99.90
33837;DHT22;20140;49.356;8.812;2024-02-15T14:02:48;17.00;99.90
33837;DHT22;20140;49.356;8.812;2024-02-15T14:05:14;17.00;99.90
33837;DHT22;20140;49.356;8.812;2024-02-15T14:07:39;17.20;99.90
33837;DHT22;20140;49.356;8.812;2024-02-15T14:10:06;17.30;99.90
33837;DHT22;20140;49.356;8.812;2024-02-15T14:12:32;17.50;99.90
33837;DHT22;20140;49.356;8.812;2024-02-15T14:14:57;17.50;99.90
33837;DHT22;20140;49.356;8.812;2024-02-15T14:17:23;17.50;99.90
33837;DHT22;20140;49.356;8.812;2024-02-15T14:19:49;17.40;99.90
33837;DHT22;20140;49.356;8.812;2024-02-15T14:22:15;17.30;99.90
33837;DHT22;20140;49.356;8.812;2024-02-15T14:24:43;17.30;99.90
33837;DHT22;20140;49.356;8.812;2024-02-15T14:27:09;17.30;99.90
33837;DHT22;20140;49.356;8.812;2024-02-15T14:29:36;17.10;99.90
33837;DHT22;20140;49.356;8.812;2024-02-15T14:32:06;17.10;99.90
33837;DHT22;20140;49.356;8.812;2024-02-15T14:34:50;17.20;99.90
33837;DHT22;20140;49.356;8.812;2024-02-15T14:37:16;17.20;99.90
33837;DHT22;20140;49.356;8.812;2024-02-15T14:39:42;17.10;99.90
33837;DHT22;20140;49.356;8.812;2024-02-15T14:42:08;17.20;99.90
33837;DHT22;20140;49.356;8.812;2024-02-15T14:44:33;16.90;99.90
33837;DHT22;20140;49.356;8.812;2024-02-15T14:46:59;16.80;99.90
33837;DHT22;20140;49.356;8.812;2024-02-15T14:49:25;16.90;99.90
33837;DHT22;20140;49.356;8.812;2024-02-15T14:51:50;16.80;99.90
33837;DHT22;20140;49.356;8.812;2024-02-15T14:54:16;16.80;99.90
33837;DHT22;20140;49.356;8.812;2024-02-15T14:56:44;16.90;99.90
33837;DHT22;20140;49.356;8.812;2024-02-15T14:59:10;16.90;99.90
33837;DHT22;20140;49.356;8.812;2024-02-15T15:01:36;16.90;99.90
33837;DHT22;20140;49.356;8.812;2024-02-15T15:04:02;16.80;99.90
33837;DHT22;20140;49.356;8.812;2024-02-15T15:06:31;16.90;99.90
33837;DHT22;20140;49.356;8.812;2024-02-15T15:09:15;16.80;99.90
33837;DHT22;20140;49.356;8.812;2024-02-15T15:11:59;16.80;99.90
33837;DHT22;20140;49.356;8.812;2024-02-15T15:14:43;16.70;99.90
33837;DHT22;20140;49.356;8.812;2024-02-15T15:17:10;16.70;99.90
33837;DHT22;20140;49.356;8.812;2024-02-15T15:19:38;16.70;99.90
33837;DHT22;20140;49.356;8.812;2024-02-15T15:22:04;16.70;99.90
33837;DHT22;20140;49.356;8.812;2024-02-15T15:24:30;16.70;99.90
33837;DHT22;20140;49.356;8.812;2024-02-15T15:26:58;16.70;99.90
33837;DHT22;20140;49.356;8.812;2024-02-15T15:29:23;16.70;99.90
33837;DHT22;20140;49.356;8.812;2024-02-15T15:31:49;16.60;99.90
33837;DHT22;20140;49.356;8.812;2024-02-15T15:34:14;16.50;99.90
33837;DHT22;20140;49.356;8.812;2024-02-15T15:36:41;16.50;99.90
33837;DHT22;20140;49.356;8.812;2024-02-15T15:39:07;16.50;99.90
33837;DHT22;20140;49.356;8.812;2024-02-15T15:41:35;16.50;99.90
33837;DHT22;20140;49.356;8.812;2024-02-15T15:44:00;16.50;99.90
33837;DHT22;20140;49.356;8.812;2024-02-15T15:46:26;16.40;99.90
33837;DHT22;20140;49.356;8.812;2024-02-15T15:48:51;16.50;99.90
33837;DHT22;20140;49.356;8.812;2024-02-15T15:51:17;16.40;99.90
33837;DHT22;20140;49.356;8.812;2024-02-15T15:53:42;16.30;99.90
33837;DHT22;20140;49.356;8.812;2024-02-15T15:56:10;16.20;99.90
33837;DHT22;20140;49.356;8.812;2024-02-15T15:58:35;16.10;99.90
33837;DHT22;20140;49.356;8.812;2024-02-15T16:01:01;16.00;99.90
33837;DHT22;20140;49.356;8.812;2024-02-15T16:03:26;16.10;99.90